createdAt,value
2023-02-28T00:01:43.324Z,79.50
2023-02-28T00:04:12.256Z,74.40
2023-02-28T00:06:41.081Z,75.80
2023-02-28T00:09:09.509Z,74.60
2023-02-28T00:11:39.213Z,64.90
2023-02-28T00:14:10.450Z,57.50
2023-02-28T00:16:39.270Z,58.50
2023-02-28T00:19:14.755Z,56.40
2023-02-28T00:21:44.416Z,62.10
2023-02-28T00:24:15.237Z,68.00
2023-02-28T00:26:43.925Z,71.90
2023-02-28T00:29:12.730Z,71.50
2023-02-28T00:31:41.591Z,75.10
2023-02-28T00:34:10.302Z,72.20
2023-02-28T00:36:39.469Z,67.70
2023-02-28T00:39:07.901Z,60.00
2023-02-28T00:41:36.596Z,55.50
2023-02-28T00:44:05.649Z,62.90
2023-02-28T00:46:34.841Z,72.50
2023-02-28T00:49:03.258Z,69.60
2023-02-28T00:51:32.287Z,64.90
2023-02-28T00:54:01.915Z,60.10
2023-02-28T00:56:31.040Z,53.50
2023-02-28T00:58:59.566Z,53.30
2023-02-28T01:01:28.569Z,63.60
2023-02-28T01:03:57.631Z,59.80
2023-02-28T01:06:28.861Z,62.10
2023-02-28T01:08:57.561Z,62.50
2023-02-28T01:11:27.071Z,62.70
2023-02-28T01:13:55.893Z,62.10
2023-02-28T01:16:24.856Z,55.30
2023-02-28T01:18:54.995Z,47.00
2023-02-28T01:21:23.566Z,58.50
2023-02-28T01:23:52.678Z,57.30
2023-02-28T01:26:23.249Z,54.40
2023-02-28T01:28:53.400Z,55.40
2023-02-28T01:31:22.687Z,52.10
2023-02-28T01:33:52.089Z,45.20
2023-02-28T01:36:24.499Z,47.50
2023-02-28T01:38:55.481Z,48.20
2023-02-28T01:41:32.650Z,46.80
2023-02-28T01:44:20.404Z,44.60
2023-02-28T01:46:49.358Z,42.20
2023-02-28T01:49:19.869Z,45.50
2023-02-28T01:51:56.146Z,46.40
2023-02-28T01:54:32.407Z,47.50
2023-02-28T01:57:05.394Z,46.00
2023-02-28T01:59:51.277Z,44.50
2023-02-28T02:02:23.625Z,44.60
2023-02-28T02:05:07.854Z,42.70
2023-02-28T02:07:42.620Z,44.80
2023-02-28T02:10:19.969Z,43.50
2023-02-28T02:12:54.564Z,43.90
2023-02-28T02:15:32.061Z,41.50
2023-02-28T02:18:12.619Z,37.70
2023-02-28T02:21:14.021Z,38.80
2023-02-28T02:23:48.256Z,35.50
2023-02-28T02:26:17.159Z,35.00
2023-02-28T02:28:51.567Z,35.80
2023-02-28T02:31:26.673Z,39.60
2023-02-28T02:34:27.189Z,38.50
2023-02-28T02:37:04.984Z,35.10
2023-02-28T02:39:46.621Z,35.60
2023-02-28T02:42:25.941Z,36.70
2023-02-28T02:45:03.552Z,38.10
2023-02-28T02:47:34.162Z,37.10
2023-02-28T02:50:06.554Z,41.80
2023-02-28T02:52:50.756Z,39.50
2023-02-28T02:55:21.817Z,39.40
2023-02-28T02:58:04.974Z,39.70
2023-02-28T03:00:42.621Z,39.60
2023-02-28T03:03:14.033Z,41.70
2023-02-28T03:05:52.545Z,39.00
2023-02-28T03:08:21.330Z,41.50
2023-02-28T03:11:05.411Z,44.40
2023-02-28T03:14:05.391Z,38.10
2023-02-28T03:16:37.862Z,38.50
2023-02-28T03:19:54.512Z,35.10
2023-02-28T03:22:56.395Z,36.10
2023-02-28T03:25:39.645Z,34.90
2023-02-28T03:28:24.810Z,35.70
2023-02-28T03:31:00.455Z,38.40
2023-02-28T03:33:40.033Z,37.10
2023-02-28T03:36:19.196Z,38.90
2023-02-28T03:38:55.743Z,38.50
2023-02-28T03:41:30.193Z,38.80
2023-02-28T03:44:06.958Z,39.40
2023-02-28T03:46:42.213Z,42.40
2023-02-28T03:49:26.276Z,38.90
2023-02-28T03:51:57.679Z,37.30
2023-02-28T03:54:37.483Z,36.30
2023-02-28T03:57:24.327Z,37.90
2023-02-28T04:00:00.835Z,37.80
2023-02-28T04:02:29.185Z,36.60
2023-02-28T04:04:58.737Z,36.20
2023-02-28T04:07:30.783Z,35.00
2023-02-28T04:10:01.395Z,32.90
2023-02-28T04:12:29.768Z,34.60
2023-02-28T04:14:58.566Z,34.70
2023-02-28T04:17:27.395Z,36.10
2023-02-28T04:19:58.646Z,33.30
2023-02-28T04:22:29.865Z,32.10
2023-02-28T04:24:58.201Z,33.70
2023-02-28T04:27:26.741Z,32.30
2023-02-28T04:29:56.752Z,31.90
2023-02-28T04:32:26.057Z,33.40
2023-02-28T04:34:55.016Z,34.90
2023-02-28T04:37:29.266Z,32.50
2023-02-28T04:39:57.722Z,31.50
2023-02-28T04:42:25.965Z,33.00
2023-02-28T04:44:54.347Z,32.90
2023-02-28T04:47:22.937Z,34.90
2023-02-28T04:49:51.324Z,34.50
2023-02-28T04:52:20.042Z,34.20
2023-02-28T04:54:49.209Z,34.40
2023-02-28T04:57:17.677Z,32.60
2023-02-28T04:59:45.981Z,33.60
2023-02-28T05:02:15.263Z,33.40
2023-02-28T05:04:44.001Z,35.10
2023-02-28T05:07:12.589Z,36.00
2023-02-28T13:24:34.704Z,5.30
2023-02-28T13:27:04.733Z,5.00
2023-02-28T13:29:37.709Z,4.40
2023-02-28T13:32:12.440Z,4.30
2023-02-28T13:35:09.268Z,4.60
2023-02-28T13:37:46.324Z,5.90
2023-02-28T13:40:14.574Z,5.10
2023-02-28T13:42:46.466Z,5.70
2023-02-28T13:45:15.329Z,4.40
2023-02-28T13:48:01.502Z,7.00
2023-02-28T13:50:36.674Z,6.60
2023-02-28T13:53:19.566Z,4.60
2023-02-28T13:55:54.613Z,4.80
2023-02-28T13:58:37.914Z,5.50
2023-02-28T14:01:34.091Z,5.60
2023-02-28T14:04:33.694Z,5.80
2023-02-28T14:07:06.490Z,6.20
2023-02-28T14:10:01.010Z,6.80
2023-02-28T14:12:51.461Z,6.20
2023-02-28T14:15:41.536Z,7.00
2023-02-28T14:18:27.079Z,7.80
2023-02-28T14:21:26.605Z,8.70
2023-02-28T14:24:24.191Z,8.60
2023-02-28T14:26:58.937Z,8.50
2023-02-28T14:29:52.065Z,7.40
2023-02-28T14:32:29.969Z,6.90
2023-02-28T14:35:19.019Z,6.50
2023-02-28T14:37:49.795Z,8.10
2023-02-28T14:40:26.894Z,9.10
2023-02-28T14:43:01.053Z,7.40
2023-02-28T14:45:33.046Z,8.40
2023-02-28T14:48:05.271Z,6.80
2023-02-28T14:50:38.871Z,7.50
2023-02-28T14:53:16.958Z,7.80
2023-02-28T14:55:50.472Z,6.90
2023-02-28T14:58:28.876Z,6.40
2023-02-28T15:01:02.693Z,6.10
2023-02-28T15:03:33.421Z,6.00
2023-02-28T15:06:05.354Z,6.80
2023-02-28T15:08:37.398Z,6.40
2023-02-28T15:11:08.298Z,5.90
2023-02-28T15:13:47.508Z,6.60
2023-02-28T15:16:26.393Z,6.80
2023-02-28T15:19:00.679Z,6.70
2023-02-28T15:21:34.761Z,6.90
2023-02-28T15:24:54.634Z,8.30
2023-02-28T15:27:33.487Z,6.60
2023-02-28T15:30:07.616Z,7.30
2023-02-28T15:32:40.255Z,8.90
2023-02-28T15:35:29.887Z,19.00
2023-02-28T15:38:16.888Z,17.90
2023-02-28T15:40:54.819Z,10.90
2023-02-28T15:43:35.174Z,7.70
2023-02-28T15:46:07.663Z,7.20
2023-02-28T15:48:39.306Z,9.20
2023-02-28T15:51:16.595Z,13.30
2023-02-28T15:54:01.287Z,12.40
2023-02-28T15:56:30.511Z,17.60
2023-02-28T15:59:02.270Z,8.80
2023-02-28T16:01:43.562Z,8.60
2023-02-28T16:04:21.510Z,8.70
2023-02-28T16:06:55.862Z,8.80
2023-02-28T16:09:25.629Z,8.50
2023-02-28T16:11:58.117Z,9.20
2023-02-28T16:14:28.894Z,9.50
2023-02-28T16:17:06.594Z,9.80
2023-02-28T16:19:34.986Z,10.40
2023-02-28T16:22:03.703Z,12.70
2023-02-28T16:24:32.046Z,16.70
2023-02-28T16:27:01.778Z,20.90
2023-02-28T16:29:35.822Z,18.80
2023-02-28T16:32:07.219Z,20.20
2023-02-28T16:34:35.821Z,21.40
2023-02-28T16:37:06.652Z,27.30
2023-02-28T16:39:35.307Z,32.30
2023-02-28T16:42:04.125Z,43.10
2023-02-28T16:44:37.025Z,46.00
2023-02-28T16:47:05.917Z,41.40
2023-02-28T16:49:34.539Z,39.20
2023-02-28T16:52:03.158Z,39.60
2023-02-28T16:54:31.638Z,33.30
2023-02-28T16:57:01.184Z,29.50
2023-02-28T16:59:31.043Z,27.90
2023-02-28T17:02:00.088Z,27.90
2023-02-28T17:04:30.394Z,25.10
2023-02-28T17:06:59.672Z,78.90
2023-02-28T17:09:36.720Z,91.90
2023-02-28T17:12:10.634Z,127.20
2023-02-28T17:14:39.252Z,98.20
2023-02-28T17:17:08.773Z,78.00
2023-02-28T17:19:40.084Z,34.00
2023-02-28T17:22:09.637Z,46.90
2023-02-28T17:24:38.455Z,41.70
2023-02-28T17:27:08.910Z,24.60
2023-02-28T17:29:41.675Z,34.80
2023-02-28T17:32:17.916Z,28.00
2023-02-28T17:34:47.290Z,58.10
2023-02-28T17:37:18.335Z,60.90
2023-02-28T17:39:46.978Z,54.20
2023-02-28T17:42:15.716Z,38.00
2023-02-28T17:44:44.121Z,36.20
2023-02-28T17:47:13.606Z,33.50
2023-02-28T17:49:42.899Z,37.70
2023-02-28T17:52:11.951Z,54.40
2023-02-28T17:54:40.588Z,50.70
2023-02-28T17:57:16.009Z,49.60
2023-02-28T17:59:45.015Z,51.60
2023-02-28T18:02:14.853Z,40.60
2023-02-28T18:04:43.467Z,34.20
2023-02-28T18:07:13.155Z,46.60
2023-02-28T18:09:41.351Z,33.70
2023-02-28T18:12:10.453Z,28.40
2023-02-28T18:14:39.013Z,33.60
2023-02-28T18:17:13.576Z,33.50
2023-02-28T18:19:42.361Z,37.40
2023-02-28T18:22:11.142Z,52.20
2023-02-28T18:24:39.907Z,40.60
2023-02-28T18:27:08.878Z,43.80
2023-02-28T18:29:41.816Z,36.10
2023-02-28T18:32:10.782Z,30.60
2023-02-28T18:34:39.611Z,26.00
2023-02-28T18:37:08.159Z,39.60
2023-02-28T18:39:36.732Z,34.90
2023-02-28T18:42:05.322Z,38.20
2023-02-28T18:44:38.401Z,38.30
2023-02-28T18:47:10.141Z,42.50
2023-02-28T18:49:38.626Z,37.60
2023-02-28T18:52:07.344Z,32.60
2023-02-28T18:54:36.665Z,28.90
2023-02-28T18:57:05.429Z,28.60
2023-02-28T18:59:33.886Z,28.30
2023-02-28T19:02:02.831Z,30.20
2023-02-28T19:04:32.156Z,50.10
2023-02-28T19:07:01.745Z,36.90
2023-02-28T19:09:30.737Z,38.60
2023-02-28T19:12:00.003Z,55.20
2023-02-28T19:14:28.691Z,65.20
2023-02-28T19:16:57.018Z,60.40
2023-02-28T19:19:25.525Z,58.80
2023-02-28T19:21:55.497Z,48.20
2023-02-28T19:24:24.584Z,49.50
2023-02-28T19:26:53.122Z,53.00
2023-02-28T19:29:22.158Z,49.30
2023-02-28T19:31:51.011Z,51.10
2023-02-28T19:34:20.004Z,50.30
2023-02-28T19:36:48.578Z,49.20
2023-02-28T19:39:19.196Z,49.50
2023-02-28T19:41:50.721Z,58.00
2023-02-28T19:44:19.205Z,64.90
2023-02-28T19:46:48.603Z,75.00
2023-02-28T19:49:18.777Z,76.80
2023-02-28T19:51:47.406Z,66.40
2023-02-28T19:54:21.136Z,68.00
2023-02-28T19:56:49.707Z,115.80
2023-02-28T19:59:25.963Z,95.00
2023-02-28T20:01:59.858Z,103.30
2023-02-28T20:04:28.950Z,140.20
2023-02-28T20:06:57.512Z,96.90
2023-02-28T20:09:26.591Z,93.30
2023-02-28T20:11:59.578Z,95.60
2023-02-28T20:14:28.089Z,85.40
2023-02-28T20:16:58.218Z,106.20
2023-02-28T20:19:27.215Z,104.60
2023-02-28T20:21:55.993Z,112.70
2023-02-28T20:24:26.279Z,121.80
2023-02-28T20:26:56.029Z,99.20
2023-02-28T20:29:25.186Z,87.30
2023-02-28T20:31:58.901Z,108.50
2023-02-28T20:34:27.444Z,96.40
2023-02-28T20:36:58.998Z,122.00
2023-02-28T20:39:27.421Z,112.90
2023-02-28T20:41:57.138Z,105.90
2023-02-28T20:44:26.102Z,95.10
2023-02-28T20:46:55.378Z,93.80
2023-02-28T20:49:24.301Z,85.30
2023-02-28T20:51:52.634Z,92.90
2023-02-28T20:54:22.046Z,105.80
2023-02-28T20:56:50.745Z,118.70
2023-02-28T20:59:21.480Z,137.80
2023-02-28T21:01:50.156Z,142.80
2023-02-28T21:04:19.086Z,121.20
2023-02-28T21:06:52.135Z,97.80
2023-02-28T21:09:20.593Z,92.60
2023-02-28T21:11:49.633Z,122.40
2023-02-28T21:14:18.531Z,116.20
2023-02-28T21:16:47.281Z,108.10
2023-02-28T21:19:21.879Z,102.50
2023-02-28T21:21:54.746Z,104.00
2023-02-28T21:24:23.085Z,99.40
2023-02-28T21:26:53.076Z,104.10
2023-02-28T21:29:21.426Z,103.10
2023-02-28T21:31:55.053Z,98.10
2023-02-28T21:34:23.846Z,88.30
2023-02-28T21:36:52.414Z,83.70
2023-02-28T21:39:30.301Z,83.90
2023-02-28T21:42:04.310Z,84.00
2023-02-28T21:44:34.930Z,91.80
2023-02-28T21:47:03.433Z,111.70
2023-02-28T21:49:33.007Z,126.20
2023-02-28T21:52:02.057Z,120.90
2023-02-28T21:54:30.453Z,124.90
2023-02-28T21:57:00.401Z,125.90
2023-02-28T21:59:32.344Z,130.50
2023-02-28T22:02:01.078Z,105.20
2023-02-28T22:04:29.455Z,80.90
2023-02-28T22:06:58.306Z,79.60
2023-02-28T22:09:28.024Z,70.90
2023-02-28T22:11:58.156Z,113.20
2023-02-28T22:14:27.079Z,92.60
2023-02-28T22:16:57.336Z,88.90
2023-02-28T22:19:28.381Z,66.10
2023-02-28T22:22:01.162Z,58.70
2023-02-28T22:24:29.962Z,62.70
2023-02-28T22:26:58.881Z,76.60
2023-02-28T22:29:27.223Z,74.30
2023-02-28T22:31:55.972Z,74.00
2023-02-28T22:34:24.118Z,66.60
2023-02-28T22:36:52.613Z,67.60
2023-02-28T22:39:21.524Z,68.30
2023-02-28T22:41:50.215Z,61.00
2023-02-28T22:44:23.231Z,55.00
2023-02-28T22:47:01.029Z,54.10
2023-02-28T22:49:29.902Z,54.40
2023-02-28T22:51:58.189Z,54.30
2023-02-28T22:54:29.532Z,52.30
2023-02-28T22:56:58.174Z,55.20
2023-02-28T22:59:27.646Z,55.50
2023-02-28T23:01:56.442Z,68.30
2023-02-28T23:04:26.995Z,68.70
2023-02-28T23:06:55.704Z,184.20
2023-02-28T23:09:25.680Z,150.50
2023-02-28T23:11:54.670Z,124.80
2023-02-28T23:14:23.268Z,61.60
2023-02-28T23:16:55.157Z,65.20
2023-02-28T23:19:30.474Z,70.90
2023-02-28T23:22:00.548Z,61.50
2023-02-28T23:24:33.056Z,51.60
2023-02-28T23:27:05.096Z,51.40
2023-02-28T23:29:34.479Z,54.30
2023-02-28T23:32:03.470Z,53.70
2023-02-28T23:34:34.530Z,54.20
2023-02-28T23:37:03.015Z,54.70
2023-02-28T23:39:32.043Z,56.20
2023-02-28T23:42:00.513Z,53.80
2023-02-28T23:44:29.519Z,54.00
2023-02-28T23:46:57.890Z,54.00
2023-02-28T23:49:29.243Z,61.00
2023-02-28T23:51:57.965Z,58.30
2023-02-28T23:54:30.562Z,57.90
2023-02-28T23:56:59.044Z,57.70
2023-02-28T23:59:27.799Z,58.20
